Antiville, Indiana
Current Conditions -  °F | °C
As of 4:53 AM on Thursday 23 Oct 2014 (Local Time) from KMIE Reporting Station
Moderate Fog Moderate Fog  
Wind Chill: 32°   Ceiling: 200
Heat Index: 32°   Visibility: 0.25mi
Dew Point: 31°   Wind: 3mph
Humidity: 96%   Direction: 110°ESE
Pressure: 30.26"   Gusts: NA
Location:  40.4312°N, 85.0058°W
Report Text: KMIE 230853Z AUTO 11003KT 1/4SM FG VV002 00/M01 A3026 RMK AO2 SLP247 I1000 I3000 T00001006 58006
Loading
Personal Weather Stations






























Interactive Weather Map New forecast layout! Learn more

10-Day Weather Forecast

Advertisements
Track Severe Weather on mobile